Time;durP1;ratioP1;P1;durP2;ratioP2;P2;SDS_P1;SDS_P2;PMS_P1;PMS_P2;Temp;Humidity;BMP_temperature;BMP_pressure;BME280_temperature;BME280_humidity;BME280_pressure;Samples;Min_cycle;Max_cycle;Signal;HPM_P1;HPM_P2
2020/12/12 00:00:20;;;;;;;26.30;14.20;;;-1.10;61.50;;;;;;5074489;28;20036;-79
2020/12/12 00:02:46;;;;;;;32.13;14.25;;;-1.10;61.50;;;;;;5074666;28;20048;-78
2020/12/12 00:05:12;;;;;;;28.63;13.77;;;-1.10;61.50;;;;;;5073220;28;20396;-78
2020/12/12 00:07:38;;;;;;;27.65;13.02;;;-1.10;61.60;;;;;;5074348;28;20059;-78
2020/12/12 00:10:04;;;;;;;25.95;12.27;;;-1.10;61.60;;;;;;5074671;28;20036;-78
2020/12/12 00:12:30;;;;;;;28.65;13.32;;;-1.10;61.40;;;;;;5074595;28;20085;-77
2020/12/12 00:14:56;;;;;;;29.35;14.32;;;-1.10;61.40;;;;;;5074477;28;20454;-78
2020/12/12 00:17:22;;;;;;;30.98;14.43;;;-1.10;61.40;;;;;;5073927;28;20129;-78
2020/12/12 00:19:48;;;;;;;23.92;13.10;;;-1.10;61.50;;;;;;5074329;28;20045;-77
2020/12/12 00:22:14;;;;;;;26.23;12.93;;;-1.10;61.40;;;;;;5073849;28;20060;-78
2020/12/12 00:24:40;;;;;;;29.50;13.20;;;-1.00;61.30;;;;;;5073841;28;20043;-79
2020/12/12 00:27:06;;;;;;;23.83;13.27;;;-1.00;61.50;;;;;;5073914;28;20036;-78
2020/12/12 00:29:32;;;;;;;25.23;13.00;;;-1.10;61.40;;;;;;5074231;28;20119;-79
2020/12/12 00:31:59;;;;;;;23.75;12.63;;;-1.10;61.40;;;;;;5074205;28;20060;-79
2020/12/12 00:34:28;;;;;;;26.48;13.32;;;-1.20;61.30;;;;;;5073677;28;20036;-78
2020/12/12 00:36:55;;;;;;;25.23;13.65;;;-1.10;61.40;;;;;;5073346;28;20043;-79
2020/12/12 00:39:21;;;;;;;26.50;13.65;;;-1.10;61.40;;;;;;5072606;28;20047;-79
2020/12/12 00:41:48;;;;;;;26.58;14.07;;;-1.10;61.40;;;;;;5072482;28;20028;-79
2020/12/12 00:44:15;;;;;;;25.98;12.60;;;-1.20;61.30;;;;;;5072402;28;20451;-78
2020/12/12 00:46:42;;;;;;;26.73;13.25;;;-1.20;61.30;;;;;;5074171;28;20047;-78
2020/12/12 00:49:09;;;;;;;26.83;13.88;;;-1.10;61.40;;;;;;5073688;28;20039;-79
2020/12/12 00:51:35;;;;;;;25.48;14.10;;;-1.10;61.30;;;;;;5073689;28;20053;-78
2020/12/12 00:54:02;;;;;;;26.63;14.02;;;-1.20;61.30;;;;;;5072405;28;20036;-79
2020/12/12 00:56:28;;;;;;;23.00;12.75;;;-1.10;61.40;;;;;;5089143;28;20051;-80
2020/12/12 00:58:54;;;;;;;25.40;12.98;;;-1.10;61.40;;;;;;5073726;28;20040;-79
2020/12/12 01:01:20;;;;;;;24.52;12.95;;;-1.10;61.30;;;;;;5072937;28;20121;-79
2020/12/12 01:03:47;;;;;;;23.13;13.38;;;-1.00;60.90;;;;;;5073532;28;20123;-78
2020/12/12 01:06:15;;;;;;;26.60;14.18;;;-1.00;60.90;;;;;;5073552;28;20029;-78
2020/12/12 01:08:42;;;;;;;24.30;13.38;;;-1.00;60.90;;;;;;5073646;28;20474;-79
2020/12/12 01:11:10;;;;;;;26.15;13.13;;;-1.00;60.80;;;;;;5073421;28;20032;-79
2020/12/12 01:13:36;;;;;;;30.33;14.73;;;-0.90;60.70;;;;;;5072169;28;20036;-78
2020/12/12 01:16:13;;;;;;;26.92;13.88;;;-1.00;60.40;;;;;;5073979;28;20426;-78
2020/12/12 01:18:39;;;;;;;27.35;14.38;;;-1.10;60.60;;;;;;5073413;28;20035;-79
2020/12/12 01:21:05;;;;;;;31.75;13.75;;;-1.10;60.70;;;;;;5073264;28;20123;-79
2020/12/12 01:23:32;;;;;;;26.58;13.20;;;-1.10;60.80;;;;;;5073427;28;20059;-79
2020/12/12 01:26:00;;;;;;;27.98;13.77;;;-1.20;61.00;;;;;;5072044;28;20044;-79
2020/12/12 01:28:26;;;;;;;26.50;13.95;;;-1.20;61.00;;;;;;5073463;28;20033;-79
2020/12/12 01:30:53;;;;;;;26.77;13.48;;;-1.20;61.10;;;;;;5073550;28;20040;-79
2020/12/12 01:33:20;;;;;;;29.40;14.18;;;-1.30;61.30;;;;;;5073234;28;20040;-78
2020/12/12 01:35:47;;;;;;;28.23;13.73;;;-1.30;61.30;;;;;;5074171;28;20037;-78
2020/12/12 01:38:12;;;;;;;27.42;14.70;;;-1.30;61.20;;;;;;5073403;28;20045;-78
2020/12/12 01:40:39;;;;;;;28.42;14.60;;;-1.30;61.10;;;;;;5072015;28;20056;-79
2020/12/12 01:43:05;;;;;;;27.13;14.25;;;-1.30;61.20;;;;;;5088766;28;20403;-78
2020/12/12 01:45:32;;;;;;;28.00;14.80;;;-1.40;61.20;;;;;;5073120;28;20044;-78
2020/12/12 01:47:58;;;;;;;28.42;14.80;;;-1.40;61.40;;;;;;5073189;28;20399;-79
2020/12/12 01:50:25;;;;;;;28.27;16.17;;;-1.30;61.30;;;;;;5073250;28;20152;-78
2020/12/12 01:52:52;;;;;;;26.13;14.95;;;-1.40;61.40;;;;;;5072740;28;20032;-78
2020/12/12 01:55:22;;;;;;;26.15;14.48;;;-1.30;61.90;;;;;;5072981;28;20500;-79
2020/12/12 01:57:52;;;;;;;24.85;13.85;;;-1.30;61.30;;;;;;5073096;28;20161;-78
2020/12/12 02:00:23;;;;;;;25.73;14.55;;;-1.30;61.20;;;;;;5088643;28;20557;-78
2020/12/12 02:02:55;;;;;;;27.42;14.65;;;-1.20;61.10;;;;;;5072595;28;20047;-79
2020/12/12 02:05:38;;;;;;;24.10;14.25;;;-1.20;61.00;;;;;;5088826;28;20110;-78
2020/12/12 02:08:16;;;;;;;29.60;14.43;;;-1.20;61.10;;;;;;5073339;28;20052;-78
2020/12/12 02:10:44;;;;;;;26.77;14.93;;;-1.30;61.00;;;;;;5071558;28;20120;-78
2020/12/12 02:13:11;;;;;;;29.65;13.98;;;-1.30;61.30;;;;;;5073448;28;20033;-78
2020/12/12 02:15:38;;;;;;;28.00;14.10;;;-1.30;61.30;;;;;;5076308;28;20062;-79
2020/12/12 02:18:25;;;;;;;26.50;13.77;;;-1.30;61.00;;;;;;5075812;28;20040;-78
2020/12/12 02:20:56;;;;;;;27.15;13.50;;;-1.30;61.10;;;;;;5076222;28;20154;-79
2020/12/12 02:23:22;;;;;;;26.95;14.20;;;-1.30;61.00;;;;;;5076908;28;20090;-79
2020/12/12 02:25:49;;;;;;;29.67;13.80;;;-1.30;60.90;;;;;;5076361;28;20036;-77
2020/12/12 02:28:19;;;;;;;28.67;13.80;;;-1.30;61.20;;;;;;5075968;28;20036;-79
2020/12/12 02:30:45;;;;;;;25.75;13.55;;;-1.40;61.10;;;;;;5076498;28;20041;-79
2020/12/12 02:33:12;;;;;;;27.90;13.55;;;-1.30;61.20;;;;;;5076302;28;20036;-78
2020/12/12 02:35:38;;;;;;;28.45;14.48;;;-1.30;61.10;;;;;;5076167;28;20062;-78
2020/12/12 02:38:04;;;;;;;25.75;13.32;;;-1.40;61.20;;;;;;5076295;28;20186;-78
2020/12/12 02:40:30;;;;;;;31.55;14.50;;;-1.40;61.40;;;;;;5075793;28;20097;-79
2020/12/12 02:42:56;;;;;;;25.02;13.65;;;-1.40;61.20;;;;;;5076055;28;20127;-78
2020/12/12 02:45:22;;;;;;;28.73;14.90;;;-1.40;61.30;;;;;;5076401;28;20029;-77
2020/12/12 02:47:48;;;;;;;26.80;13.20;;;-1.50;61.20;;;;;;5076487;28;20036;-78
2020/12/12 02:50:14;;;;;;;23.08;12.30;;;-1.40;61.40;;;;;;5076384;28;20395;-78
2020/12/12 02:52:42;;;;;;;26.73;14.05;;;-1.40;61.20;;;;;;5074853;28;20480;-78
2020/12/12 02:55:10;;;;;;;30.25;15.18;;;-1.40;61.10;;;;;;5075713;28;20040;-78
2020/12/12 02:57:37;;;;;;;21.80;13.23;;;-1.30;60.90;;;;;;5076063;28;20506;-78
2020/12/12 03:00:29;;;;;;;26.02;13.35;;;-1.20;60.50;;;;;;5075885;28;20047;-79
2020/12/12 03:02:55;;;;;;;24.13;12.82;;;-1.30;60.60;;;;;;5075958;28;20044;-79
2020/12/12 03:05:21;;;;;;;24.25;13.98;;;-1.30;60.70;;;;;;5075809;28;20033;-79
2020/12/12 03:07:47;;;;;;;26.38;13.32;;;-1.30;60.70;;;;;;5074500;28;20410;-78
2020/12/12 03:10:13;;;;;;;27.77;13.38;;;-1.30;60.70;;;;;;5075394;28;20052;-78
2020/12/12 03:12:39;;;;;;;24.48;14.35;;;-1.30;60.60;;;;;;5075690;28;20036;-78
2020/12/12 03:15:10;;;;;;;22.77;13.00;;;-1.40;60.80;;;;;;5075319;28;20036;-78
2020/12/12 03:17:36;;;;;;;28.20;14.18;;;-1.30;60.90;;;;;;5074711;28;20383;-80
2020/12/12 03:20:05;;;;;;;25.27;12.95;;;-1.40;60.50;;;;;;5073905;28;20071;-79
2020/12/12 03:22:31;;;;;;;20.88;11.98;;;-1.40;60.90;;;;;;5075207;28;20178;-79
2020/12/12 03:24:57;;;;;;;32.42;14.95;;;-1.40;60.60;;;;;;5073761;28;20041;-81
2020/12/12 03:27:23;;;;;;;23.10;12.32;;;-1.40;60.80;;;;;;5075466;28;20170;-79
2020/12/12 03:29:49;;;;;;;28.73;13.32;;;-1.50;60.90;;;;;;5075416;28;20040;-79
2020/12/12 03:32:15;;;;;;;25.23;13.05;;;-1.50;60.90;;;;;;5074982;28;20031;-79
2020/12/12 03:34:44;;;;;;;25.50;12.07;;;-1.60;60.90;;;;;;5074825;28;20043;-80
2020/12/12 03:37:11;;;;;;;27.02;13.00;;;-1.60;61.10;;;;;;5074987;28;20037;-79
2020/12/12 03:39:37;;;;;;;21.83;12.63;;;-1.60;61.00;;;;;;5075558;28;20033;-78
2020/12/12 03:42:03;;;;;;;27.02;13.32;;;-1.60;61.10;;;;;;5075638;28;20037;-79
2020/12/12 03:44:29;;;;;;;26.55;13.52;;;-1.60;61.30;;;;;;5074670;28;20062;-78
2020/12/12 03:46:55;;;;;;;29.52;13.93;;;-1.70;61.10;;;;;;5074499;28;20044;-79
2020/12/12 03:49:20;;;;;;;27.80;14.05;;;-1.60;61.30;;;;;;5073430;28;20036;-78
2020/12/12 03:51:46;;;;;;;26.98;13.43;;;-1.60;61.20;;;;;;5073372;28;20049;-77
2020/12/12 03:54:12;;;;;;;28.75;13.95;;;-1.50;61.10;;;;;;5077293;28;20039;-80
2020/12/12 03:56:38;;;;;;;29.67;14.18;;;-1.60;61.10;;;;;;5082619;28;20116;-79
2020/12/12 03:59:04;;;;;;;25.90;13.82;;;-1.50;61.10;;;;;;5083731;28;20032;-79
2020/12/12 04:01:31;;;;;;;24.38;12.68;;;-1.60;61.20;;;;;;5077390;28;20431;-79
2020/12/12 04:03:58;;;;;;;23.25;13.10;;;-1.50;61.10;;;;;;5074639;28;20028;-79
2020/12/12 04:06:25;;;;;;;26.02;13.50;;;-1.50;61.10;;;;;;5074491;28;20400;-79
2020/12/12 04:08:51;;;;;;;32.00;14.15;;;-1.50;61.10;;;;;;5074609;28;20032;-78
2020/12/12 04:11:17;;;;;;;26.10;13.52;;;-1.60;61.30;;;;;;5074289;28;20047;-78
2020/12/12 04:13:43;;;;;;;27.90;14.45;;;-1.60;61.50;;;;;;5074924;28;20040;-78
2020/12/12 04:16:09;;;;;;;32.53;15.38;;;-1.50;61.40;;;;;;5072491;28;20036;-78
2020/12/12 04:18:35;;;;;;;31.42;14.90;;;-1.50;61.40;;;;;;5071850;28;20040;-78
2020/12/12 04:21:01;;;;;;;29.17;14.50;;;-1.50;61.50;;;;;;5074104;28;20070;-78
2020/12/12 04:23:26;;;;;;;27.52;14.45;;;-1.60;61.80;;;;;;5074125;28;20028;-78
2020/12/12 04:25:52;;;;;;;28.27;14.82;;;-1.60;62.10;;;;;;5089947;28;20381;-78
2020/12/12 04:28:18;;;;;;;29.13;14.80;;;-1.60;61.90;;;;;;5073944;28;20127;-78
2020/12/12 04:30:44;;;;;;;29.77;15.27;;;-1.60;62.10;;;;;;5089765;28;20040;-78
2020/12/12 04:33:10;;;;;;;27.73;13.43;;;-1.60;62.20;;;;;;5073867;28;20037;-78
2020/12/12 04:35:36;;;;;;;29.45;15.15;;;-1.60;62.20;;;;;;5073746;28;20047;-79
2020/12/12 04:38:02;;;;;;;28.38;13.93;;;-1.50;62.20;;;;;;5073134;28;20064;-78
2020/12/12 04:40:29;;;;;;;32.13;14.77;;;-1.50;62.20;;;;;;5074332;28;20052;-77
2020/12/12 04:42:56;;;;;;;35.58;16.30;;;-1.50;62.10;;;;;;5073789;28;20062;-77
2020/12/12 04:45:23;;;;;;;31.80;15.52;;;-1.50;62.40;;;;;;5089154;28;20040;-78
2020/12/12 04:47:50;;;;;;;30.52;14.82;;;-1.60;62.50;;;;;;5073463;28;20033;-78
2020/12/12 04:50:28;;;;;;;42.40;15.43;;;-1.60;62.90;;;;;;5073212;28;20103;-78
2020/12/12 04:53:11;;;;;;;33.35;15.00;;;-1.60;63.30;;;;;;5073593;28;20040;-77
2020/12/12 04:55:49;;;;;;;32.58;14.95;;;-1.80;63.70;;;;;;5055734;28;20036;-79
2020/12/12 04:58:21;;;;;;;30.88;14.40;;;-1.80;64.10;;;;;;5073285;28;20039;-78
2020/12/12 05:00:49;;;;;;;36.92;16.05;;;-1.80;64.30;;;;;;5073683;28;20044;-79
2020/12/12 05:03:21;;;;;;;31.77;15.18;;;-1.80;64.50;;;;;;5072076;28;20446;-78
2020/12/12 05:05:47;;;;;;;37.45;16.35;;;-1.80;64.90;;;;;;5072073;28;20032;-78
2020/12/12 05:08:13;;;;;;;38.13;16.05;;;-1.70;64.80;;;;;;5073177;28;20539;-79
2020/12/12 05:10:44;;;;;;;33.85;15.35;;;-1.60;64.70;;;;;;5072979;28;20033;-79
2020/12/12 05:13:24;;;;;;;33.25;16.67;;;-1.70;64.90;;;;;;5071666;28;20500;-79
2020/12/12 05:15:52;;;;;;;35.75;15.88;;;-1.80;65.40;;;;;;5074359;28;20496;-79
2020/12/12 05:18:18;;;;;;;37.38;17.83;;;-1.70;65.40;;;;;;5073149;28;20445;-79
2020/12/12 05:20:48;;;;;;;40.45;17.05;;;-1.80;65.40;;;;;;5073241;28;20114;-79
2020/12/12 05:23:16;;;;;;;41.90;17.55;;;-1.70;65.60;;;;;;5073434;28;20036;-79
2020/12/12 05:25:43;;;;;;;33.40;16.67;;;-1.70;65.70;;;;;;5089551;28;20036;-79
2020/12/12 05:28:10;;;;;;;37.55;17.35;;;-1.70;65.80;;;;;;5073542;28;20063;-80
2020/12/12 05:30:37;;;;;;;44.17;18.55;;;-1.80;65.90;;;;;;5088368;28;20047;-79
2020/12/12 05:33:08;;;;;;;41.88;18.52;;;-1.80;65.90;;;;;;5073052;28;20061;-80
2020/12/12 05:35:34;;;;;;;46.00;18.15;;;-1.80;66.00;;;;;;5072056;28;20105;-79
2020/12/12 05:38:02;;;;;;;44.95;19.25;;;-1.70;66.00;;;;;;5073143;28;20060;-79
2020/12/12 05:40:28;;;;;;;46.28;19.67;;;-1.70;65.70;;;;;;5088689;28;20519;-78
2020/12/12 05:42:54;;;;;;;40.33;17.98;;;-1.80;65.70;;;;;;5072772;28;20037;-80
2020/12/12 05:45:20;;;;;;;44.47;19.05;;;-1.60;65.50;;;;;;5072898;28;20029;-78
2020/12/12 05:47:47;;;;;;;46.05;19.25;;;-1.60;65.20;;;;;;5074118;28;20047;-79
2020/12/12 05:50:13;;;;;;;45.22;18.08;;;-1.60;64.70;;;;;;5076781;28;20048;-79
2020/12/12 05:52:42;;;;;;;41.85;18.27;;;-1.60;64.80;;;;;;5077284;28;20032;-80
2020/12/12 05:55:09;;;;;;;40.63;18.63;;;-1.70;65.40;;;;;;5076018;28;20060;-80
2020/12/12 05:57:37;;;;;;;39.00;17.45;;;-1.70;64.80;;;;;;5076741;28;20028;-80
2020/12/12 06:00:05;;;;;;;41.08;18.33;;;-1.70;64.70;;;;;;5076918;28;20040;-80
2020/12/12 06:02:42;;;;;;;43.50;19.90;;;-1.60;64.50;;;;;;5076600;28;20083;-81
2020/12/12 06:05:18;;;;;;;42.65;20.38;;;-1.60;64.40;;;;;;5076666;28;20071;-81
2020/12/12 06:07:52;;;;;;;39.83;19.98;;;-1.50;63.90;;;;;;5076997;28;20039;-81
2020/12/12 06:10:20;;;;;;;37.72;17.73;;;-1.50;63.40;;;;;;5076835;28;20515;-82
2020/12/12 06:12:47;;;;;;;41.33;18.00;;;-1.50;63.40;;;;;;5076471;28;20047;-79
2020/12/12 06:15:18;;;;;;;41.70;17.77;;;-1.50;63.30;;;;;;5092067;28;20068;-80
2020/12/12 06:18:08;;;;;;;37.50;17.58;;;-1.60;63.20;;;;;;5076671;28;20112;-80
2020/12/12 06:20:38;;;;;;;32.88;17.55;;;-1.50;62.90;;;;;;5076423;28;20082;-79
2020/12/12 06:23:06;;;;;;;38.20;19.40;;;-1.60;62.70;;;;;;5092211;28;20406;-80
2020/12/12 06:25:32;;;;;;;34.28;16.80;;;-1.50;62.60;;;;;;5077037;28;20117;-80
2020/12/12 06:28:01;;;;;;;38.38;16.33;;;-1.50;62.30;;;;;;5080024;28;20056;-79
2020/12/12 06:30:27;;;;;;;33.65;16.20;;;-1.60;62.20;;;;;;5076238;28;20036;-79
2020/12/12 06:33:01;;;;;;;36.15;17.08;;;-1.50;62.10;;;;;;5076104;28;20150;-79
2020/12/12 06:35:32;;;;;;;38.05;18.92;;;-1.60;61.80;;;;;;5091941;28;20033;-79
2020/12/12 06:38:27;;;;;;;35.08;17.70;;;-1.60;61.90;;;;;;5076079;28;20063;-80
2020/12/12 06:40:57;;;;;;;31.93;16.00;;;-1.60;62.00;;;;;;5075819;28;20056;-81
2020/12/12 06:43:33;;;;;;;30.42;17.42;;;-1.50;61.80;;;;;;5075302;28;20838;-81
2020/12/12 06:46:02;;;;;;;37.00;16.45;;;-1.50;61.50;;;;;;5076400;28;20040;-81
2020/12/12 06:48:29;;;;;;;34.33;15.95;;;-1.50;61.00;;;;;;5075994;28;20097;-81
2020/12/12 06:50:56;;;;;;;34.63;16.02;;;-1.50;61.10;;;;;;5076087;28;20032;-80
2020/12/12 06:53:25;;;;;;;31.38;16.30;;;-1.50;60.60;;;;;;5074250;28;20479;-80
2020/12/12 06:56:07;;;;;;;34.35;16.98;;;-1.60;60.70;;;;;;5075837;28;20060;-80
2020/12/12 06:58:34;;;;;;;32.50;15.23;;;-1.60;61.10;;;;;;5075104;28;20051;-81
2020/12/12 07:01:26;;;;;;;34.60;16.20;;;-1.60;60.90;;;;;;5075206;28;20109;-80
2020/12/12 07:04:03;;;;;;;30.67;16.77;;;-1.60;60.60;;;;;;5075641;28;20050;-81
2020/12/12 07:06:31;;;;;;;33.72;16.58;;;-1.60;60.80;;;;;;5075446;28;20500;-81
2020/12/12 07:09:04;;;;;;;29.55;15.77;;;-1.60;60.50;;;;;;5073476;28;20041;-81
2020/12/12 07:11:31;;;;;;;27.70;15.30;;;-1.50;60.50;;;;;;5075057;28;20086;-80
2020/12/12 07:13:58;;;;;;;28.85;15.55;;;-1.50;60.30;;;;;;5073838;28;20028;-83
2020/12/12 07:16:26;;;;;;;33.30;16.38;;;-1.50;60.30;;;;;;5075255;28;20029;-81
2020/12/12 07:18:52;;;;;;;27.75;16.48;;;-1.50;60.10;;;;;;5075221;28;20037;-81
2020/12/12 07:21:19;;;;;;;34.05;17.45;;;-1.60;60.20;;;;;;5075443;28;20484;-84
2020/12/12 07:23:46;;;;;;;31.27;17.40;;;-1.70;60.30;;;;;;5075253;28;20533;-86
2020/12/12 07:26:13;;;;;;;31.92;16.67;;;-1.60;60.40;;;;;;5075389;28;20039;-80
2020/12/12 07:28:39;;;;;;;31.23;16.85;;;-1.60;60.10;;;;;;5076042;28;20040;-85
2020/12/12 07:31:06;;;;;;;31.80;16.95;;;-1.60;59.70;;;;;;5075751;28;20048;-85
2020/12/12 07:33:32;;;;;;;32.70;18.13;;;-1.50;59.40;;;;;;5074009;28;20031;-84
2020/12/12 07:35:58;;;;;;;29.90;16.35;;;-1.60;59.50;;;;;;5075073;28;20048;-80
2020/12/12 07:38:24;;;;;;;35.78;17.05;;;-1.60;59.20;;;;;;5074928;28;20143;-80
2020/12/12 07:40:51;;;;;;;36.05;17.98;;;-1.90;59.60;;;;;;5075976;28;20044;-83
2020/12/12 07:43:17;;;;;;;32.97;16.52;;;-1.90;59.80;;;;;;5074238;28;20088;-83
2020/12/12 07:48:27;;;;;;;34.90;17.30;;;-2.00;60.00;;;;;;5074607;28;20512;-83
2020/12/12 07:50:53;;;;;;;37.20;18.37;;;-1.80;59.50;;;;;;5073190;28;20079;-80
2020/12/12 07:53:20;;;;;;;36.13;18.42;;;-1.60;59.10;;;;;;5074951;28;20032;-87
2020/12/12 07:56:01;;;;;;;35.67;17.83;;;-1.70;59.20;;;;;;5075535;28;20089;-83
2020/12/12 07:58:30;;;;;;;34.22;17.58;;;-1.80;59.40;;;;;;5074573;28;20040;-82
2020/12/12 08:01:00;;;;;;;30.27;16.73;;;-1.90;60.20;;;;;;5073424;28;20131;-82
2020/12/12 08:03:28;;;;;;;35.00;16.90;;;-1.90;59.40;;;;;;5074644;28;20040;-87
2020/12/12 08:06:07;;;;;;;33.63;17.00;;;-1.80;59.50;;;;;;5073394;28;20131;-86
2020/12/12 08:08:34;;;;;;;34.42;16.77;;;-1.80;59.50;;;;;;5056544;28;20044;-83
2020/12/12 08:11:01;;;;;;;36.05;18.13;;;-1.80;59.40;;;;;;5074508;28;20037;-83
2020/12/12 08:13:29;;;;;;;35.35;18.00;;;-1.70;59.30;;;;;;5090206;28;20036;-82
2020/12/12 08:15:59;;;;;;;30.92;16.27;;;-1.80;59.40;;;;;;5091931;28;20025;-87
2020/12/12 08:18:25;;;;;;;28.80;16.60;;;-1.50;59.40;;;;;;5083065;28;20045;-91
2020/12/12 08:20:51;;;;;;;28.98;16.30;;;-1.30;59.00;;;;;;5089149;28;20027;-90
2020/12/12 08:23:18;;;;;;;33.28;17.15;;;-1.10;58.70;;;;;;5088528;28;20016;-87
2020/12/12 08:25:44;;;;;;;37.50;16.67;;;-0.90;58.60;;;;;;5082923;28;20123;-89
2020/12/12 08:28:10;;;;;;;29.58;15.85;;;-0.80;58.50;;;;;;5086490;28;20039;-89
2020/12/12 08:30:36;;;;;;;30.27;16.92;;;-0.70;58.40;;;;;;5082357;28;20225;-87
2020/12/12 08:33:10;;;;;;;31.08;16.80;;;-0.60;58.30;;;;;;5076513;28;20067;-88
2020/12/12 08:35:36;;;;;;;29.40;16.33;;;-0.50;58.30;;;;;;5079736;28;20037;-89
2020/12/12 08:38:08;;;;;;;30.17;17.50;;;-0.50;58.00;;;;;;5076022;28;20057;-90
2020/12/12 08:40:48;;;;;;;36.35;17.98;;;-0.40;58.20;;;;;;5078224;28;20044;-89
2020/12/12 08:43:15;;;;;;;35.40;17.08;;;-0.30;58.20;;;;;;5090179;28;20040;-83
2020/12/12 08:45:43;;;;;;;30.83;16.70;;;-0.20;58.00;;;;;;5073742;28;20024;-87
2020/12/12 08:48:14;;;;;;;37.30;19.33;;;-0.20;58.00;;;;;;5073774;28;20392;-84
2020/12/12 08:50:55;;;;;;;33.30;18.20;;;-0.10;58.10;;;;;;5097869;28;20047;-85
2020/12/12 08:53:27;;;;;;;32.08;18.35;;;-0.10;58.10;;;;;;5112704;28;20029;-83
2020/12/12 08:56:15;;;;;;;35.58;17.50;;;-0.10;57.90;;;;;;5096208;28;20032;-87
2020/12/12 08:58:57;;;;;;;32.78;16.65;;;-0.10;57.90;;;;;;5095150;28;20078;-83
2020/12/12 09:01:34;;;;;;;27.90;15.63;;;-0.10;58.00;;;;;;5094347;28;20044;-86
2020/12/12 09:04:03;;;;;;;31.10;15.60;;;0.00;58.00;;;;;;5100465;28;20067;-86
2020/12/12 09:06:46;;;;;;;35.40;17.02;;;0.00;57.90;;;;;;5130992;22;20519;-83
2020/12/12 09:09:14;;;;;;;41.38;18.40;;;0.00;57.90;;;;;;5079349;28;20044;-86
2020/12/12 09:12:01;;;;;;;32.63;17.27;;;0.10;57.90;;;;;;5071332;28;20407;-84
2020/12/12 09:14:30;;;;;;;29.80;17.25;;;0.10;57.70;;;;;;5040934;28;20090;-88
2020/12/12 09:17:02;;;;;;;32.58;17.50;;;0.10;57.70;;;;;;5248988;23;20094;-92
2020/12/12 09:19:29;;;;;;;36.53;17.73;;;0.20;57.80;;;;;;5088695;28;20048;-90
2020/12/12 09:21:56;;;;;;;34.15;17.98;;;0.20;57.60;;;;;;5087941;28;20025;-86
2020/12/12 09:24:22;;;;;;;34.60;17.65;;;0.20;57.70;;;;;;5078747;28;20062;-90
2020/12/12 09:26:50;;;;;;;37.70;18.52;;;0.20;57.70;;;;;;5073830;28;20036;-89
2020/12/12 09:29:16;;;;;;;37.00;18.85;;;0.20;57.60;;;;;;5072770;28;20450;-85
2020/12/12 09:31:43;;;;;;;33.90;18.08;;;0.20;57.60;;;;;;5072788;28;20131;-85
2020/12/12 09:34:11;;;;;;;30.55;16.48;;;0.20;57.60;;;;;;5070033;28;20459;-86
2020/12/12 09:36:38;;;;;;;36.15;17.13;;;0.20;57.60;;;;;;5070187;28;20083;-85
2020/12/12 09:39:06;;;;;;;34.83;19.30;;;0.20;57.60;;;;;;5071789;28;20116;-86
2020/12/12 09:41:34;;;;;;;33.10;18.20;;;0.20;57.70;;;;;;5071095;28;20043;-84
2020/12/12 09:44:00;;;;;;;33.75;17.83;;;0.20;57.70;;;;;;5071558;28;20407;-89
2020/12/12 09:46:26;;;;;;;28.98;16.70;;;0.30;57.60;;;;;;5071976;28;20036;-81
2020/12/12 09:48:53;;;;;;;31.27;17.00;;;0.30;57.50;;;;;;5070439;28;20488;-83
2020/12/12 09:51:19;;;;;;;36.17;18.42;;;0.30;57.50;;;;;;5072779;28;20044;-83
2020/12/12 09:53:46;;;;;;;31.98;17.73;;;0.30;57.50;;;;;;5053486;28;20047;-86
2020/12/12 09:56:13;;;;;;;31.73;16.50;;;0.30;57.50;;;;;;5071704;28;20036;-87
2020/12/12 09:58:41;;;;;;;29.52;17.20;;;0.20;57.40;;;;;;5073131;28;20424;-84
2020/12/12 10:01:07;;;;;;;30.60;18.17;;;0.30;57.60;;;;;;5072131;28;20135;-84
2020/12/12 10:03:33;;;;;;;29.73;16.80;;;0.30;57.50;;;;;;5054116;28;20587;-83
2020/12/12 10:05:59;;;;;;;28.88;16.67;;;0.30;57.40;;;;;;5073835;28;20032;-82
2020/12/12 10:08:27;;;;;;;36.92;18.98;;;0.30;57.30;;;;;;5073000;28;20052;-82
2020/12/12 10:10:54;;;;;;;31.95;17.65;;;0.30;57.40;;;;;;5070736;28;20037;-83
2020/12/12 10:13:20;;;;;;;32.85;17.27;;;0.20;57.50;;;;;;5053800;28;20032;-81
2020/12/12 10:15:50;;;;;;;29.92;15.82;;;0.30;57.50;;;;;;5053585;28;20060;-82
2020/12/12 10:18:16;;;;;;;29.77;17.45;;;0.30;57.50;;;;;;5071706;28;20045;-81
2020/12/12 10:20:42;;;;;;;34.90;19.40;;;0.30;57.50;;;;;;5070785;28;20040;-81
2020/12/12 10:23:08;;;;;;;31.30;17.35;;;0.30;57.40;;;;;;5052987;28;20045;-81
2020/12/12 10:25:34;;;;;;;32.08;17.67;;;0.30;57.40;;;;;;5053666;28;20446;-82
2020/12/12 10:28:00;;;;;;;31.77;16.38;;;0.30;57.40;;;;;;5053546;28;20032;-83
2020/12/12 10:30:27;;;;;;;31.98;17.60;;;0.30;57.40;;;;;;5072509;28;20040;-83
2020/12/12 10:32:53;;;;;;;34.78;18.70;;;0.30;57.50;;;;;;5072350;28;20086;-83
2020/12/12 10:35:19;;;;;;;37.28;18.77;;;0.30;57.40;;;;;;5056434;28;20475;-81
2020/12/12 10:37:44;;;;;;;33.58;18.02;;;0.30;57.40;;;;;;5075863;28;20078;-82
2020/12/12 10:40:19;;;;;;;36.33;18.60;;;0.30;57.40;;;;;;5076200;28;20051;-82
2020/12/12 10:42:45;;;;;;;29.15;17.63;;;0.40;57.40;;;;;;5076450;28;20450;-85
2020/12/12 10:45:11;;;;;;;33.78;18.02;;;0.30;57.30;;;;;;5041411;28;20032;-82
2020/12/12 10:47:37;;;;;;;29.05;17.13;;;0.30;57.40;;;;;;5057935;28;20152;-81
2020/12/12 10:50:05;;;;;;;36.05;18.67;;;0.30;57.40;;;;;;5074875;28;20028;-82
2020/12/12 10:52:31;;;;;;;31.15;17.60;;;0.30;57.60;;;;;;5076526;28;20029;-87
2020/12/12 10:54:57;;;;;;;33.38;17.80;;;0.30;57.50;;;;;;5062680;28;20040;-85
2020/12/12 10:57:23;;;;;;;30.25;19.00;;;0.30;57.50;;;;;;5081147;28;20056;-83
2020/12/12 10:59:50;;;;;;;28.95;17.00;;;0.30;57.80;;;;;;5085170;28;20032;-86
2020/12/12 11:02:16;;;;;;;33.45;17.52;;;0.40;61.10;;;;;;5093043;28;20027;-87
2020/12/12 11:04:43;;;;;;;36.17;20.50;;;0.40;68.20;;;;;;5085410;28;20032;-85
2020/12/12 11:07:10;;;;;;;36.83;19.65;;;0.30;72.50;;;;;;5085533;28;20035;-91
2020/12/12 11:09:36;;;;;;;39.47;19.38;;;0.10;72.00;;;;;;5083855;28;20055;-93
2020/12/12 11:12:02;;;;;;;36.70;20.48;;;-0.20;71.20;;;;;;5084237;28;20483;-91
2020/12/12 11:14:31;;;;;;;40.22;20.45;;;-0.30;70.00;;;;;;5069047;28;20051;-91
2020/12/12 11:16:57;;;;;;;41.40;20.38;;;-0.40;68.50;;;;;;5079395;28;20061;-88
2020/12/12 11:19:23;;;;;;;38.78;19.95;;;-0.60;67.70;;;;;;5062021;28;20147;-84
2020/12/12 11:21:52;;;;;;;38.20;21.27;;;-0.60;66.30;;;;;;5076546;28;20527;-84
2020/12/12 11:24:18;;;;;;;40.03;19.77;;;-0.80;66.50;;;;;;5082556;28;20036;-90
2020/12/12 11:26:44;;;;;;;33.53;18.70;;;-0.80;66.70;;;;;;5083202;28;20038;-86
2020/12/12 11:29:11;;;;;;;37.67;19.38;;;-0.90;66.40;;;;;;5083318;28;20024;-85
2020/12/12 11:31:40;;;;;;;38.35;18.95;;;-0.90;68.10;;;;;;5076836;28;20086;-87
2020/12/12 11:34:30;;;;;;;34.95;18.13;;;-0.90;67.50;;;;;;5058774;28;20040;-79
2020/12/12 11:47:00;;;;;;;35.53;17.80;;;-1.00;66.30;;;;;;5056970;28;20038;-84
2020/12/12 11:49:26;;;;;;;34.17;18.20;;;-1.00;66.60;;;;;;5075346;28;20033;-85
2020/12/12 11:51:52;;;;;;;32.08;17.60;;;-1.00;67.10;;;;;;5079110;28;20044;-88
2020/12/12 11:54:18;;;;;;;33.03;17.15;;;-1.00;66.60;;;;;;5077496;28;20043;-88
2020/12/12 11:56:44;;;;;;;32.20;18.25;;;-1.10;66.50;;;;;;5076018;28;20033;-85
2020/12/12 11:59:12;;;;;;;34.20;18.80;;;-1.10;66.40;;;;;;5075842;28;20189;-84
2020/12/12 12:01:38;;;;;;;35.53;19.35;;;-1.10;66.10;;;;;;5074396;28;20028;-84
2020/12/12 12:04:04;;;;;;;36.97;19.50;;;-1.20;66.40;;;;;;5040728;28;20028;-86
2020/12/12 12:06:30;;;;;;;35.42;18.48;;;-1.20;65.80;;;;;;5080320;28;20042;-91
2020/12/12 12:11:31;;;;;;;31.73;17.05;;;-1.30;65.40;;;;;;5082584;28;20124;-93
2020/12/12 12:13:58;;;;;;;;;;;-1.00;65.30;;;;;;5061493;28;20040;-90
2020/12/12 12:16:24;;;;;;;33.10;17.05;;;-0.90;64.80;;;;;;5080635;28;19928;-86
2020/12/12 12:18:50;;;;;;;34.10;16.85;;;-0.80;64.40;;;;;;5040555;28;20427;-91
2020/12/12 12:21:16;;;;;;;32.95;17.65;;;-0.70;63.90;;;;;;5075044;28;20037;-80
2020/12/12 12:23:43;;;;;;;32.33;17.15;;;-0.60;63.60;;;;;;5073794;28;20043;-81
2020/12/12 12:26:10;;;;;;;35.58;18.48;;;-0.50;63.50;;;;;;5074497;28;20028;-87
2020/12/12 12:28:36;;;;;;;30.83;18.00;;;-0.40;63.30;;;;;;5073647;28;20043;-82
2020/12/12 12:31:02;;;;;;;35.15;18.25;;;-0.40;63.10;;;;;;5073990;28;20115;-82
2020/12/12 12:33:28;;;;;;;38.97;19.88;;;-0.40;62.40;;;;;;5072904;28;20037;-85
2020/12/12 12:35:54;;;;;;;38.38;20.88;;;-0.60;62.20;;;;;;5072187;28;20523;-84
2020/12/12 12:38:20;;;;;;;39.40;20.42;;;-0.80;61.70;;;;;;5073183;28;20048;-83
2020/12/12 12:40:46;;;;;;;36.17;19.92;;;-0.90;61.80;;;;;;5073775;28;20055;-85
2020/12/12 12:43:12;;;;;;;37.25;20.27;;;-0.90;61.30;;;;;;5073275;28;20147;-85
2020/12/12 12:45:38;;;;;;;40.28;21.75;;;-0.90;61.50;;;;;;5073660;28;20041;-84
2020/12/12 12:48:04;;;;;;;39.97;20.55;;;-0.90;61.20;;;;;;5073725;28;20450;-84